WZZ2281 ESNU-EKCH
Flight info
| Callsign | WZZ2281 |
|---|---|
| Flight time | 1h 46m |
| Altitude | 34000 |
| Route | DEDIT DCT IRGAL DCT RIKPA DCT DEGAL DCT TORVA DCT LURAR DCT JON T402 ERNOV |
| Aircraft | A321/M-SDE3FGHIRWY/LB1 |
Departure
| Time | 2026-05-06 08:56 |
|---|---|
| Airport | Umeå Airport (ESNU) |
Arrival
| Time | 2026-05-06 10:43 |
|---|---|
| Airport | Copenhagen Kastrup Airport (EKCH) |
| Time | Latitude | Longitude | Altitude | Speed | Heading |
|---|---|---|---|---|---|
| 2026-05-06 08:24 | 63.79274 | 20.28843 | 27 ft | 0 kts | 48° |
| 2026-05-06 08:46 | 63.79270 | 20.28832 | 27 ft | 4 kts | 48° |
| 2026-05-06 08:47 | 63.79252 | 20.28787 | 26 ft | 4 kts | 38° |
| 2026-05-06 08:47 | 63.79231 | 20.28770 | 26 ft | 4 kts | 336° |
| 2026-05-06 08:47 | 63.79214 | 20.28800 | 27 ft | 1 kts | 311° |
| 2026-05-06 08:47 | 63.79211 | 20.28808 | 27 ft | 0 kts | 311° |
| 2026-05-06 08:50 | 63.79211 | 20.28807 | 27 ft | 0 kts | 311° |
| 2026-05-06 08:50 | 63.79232 | 20.28753 | 26 ft | 10 kts | 310° |
| 2026-05-06 08:51 | 63.79234 | 20.28607 | 26 ft | 10 kts | 238° |
| 2026-05-06 08:51 | 63.79205 | 20.28526 | 26 ft | 0 kts | 227° |
| 2026-05-06 08:51 | 63.79194 | 20.28498 | 26 ft | 9 kts | 227° |
| 2026-05-06 08:52 | 63.79137 | 20.28412 | 26 ft | 11 kts | 185° |
| 2026-05-06 08:52 | 63.79078 | 20.28491 | 27 ft | 10 kts | 138° |
| 2026-05-06 08:52 | 63.79045 | 20.28557 | 28 ft | 10 kts | 138° |
| 2026-05-06 08:52 | 63.78945 | 20.28757 | 27 ft | 18 kts | 138° |
| 2026-05-06 08:53 | 63.78847 | 20.28954 | 25 ft | 20 kts | 138° |
| 2026-05-06 08:53 | 63.78742 | 20.29170 | 24 ft | 21 kts | 137° |
| 2026-05-06 08:53 | 63.78636 | 20.29391 | 25 ft | 21 kts | 136° |
| 2026-05-06 08:53 | 63.78530 | 20.29593 | 27 ft | 20 kts | 139° |
| 2026-05-06 08:54 | 63.78461 | 20.29729 | 27 ft | 20 kts | 139° |
| 2026-05-06 08:54 | 63.78358 | 20.29933 | 26 ft | 16 kts | 144° |
| 2026-05-06 08:54 | 63.78323 | 20.30006 | 31 ft | 2 kts | 48° |
| 2026-05-06 08:54 | 63.78336 | 20.29980 | 32 ft | 4 kts | 308° |
| 2026-05-06 08:55 | 63.78356 | 20.29938 | 26 ft | 0 kts | 319° |
| 2026-05-06 08:55 | 63.78392 | 20.29864 | 26 ft | 36 kts | 318° |
| 2026-05-06 08:55 | 63.78616 | 20.29406 | 26 ft | 93 kts | 318° |
| 2026-05-06 08:56 | 63.79300 | 20.28038 | 42 ft | 161 kts | 320° |
| 2026-05-06 08:56 | 63.80162 | 20.26356 | 812 ft | 163 kts | 315° |
| 2026-05-06 08:56 | 63.80818 | 20.24298 | 1396 ft | 173 kts | 281° |
| 2026-05-06 08:56 | 63.80541 | 20.21567 | 1625 ft | 195 kts | 239° |
| 2026-05-06 08:57 | 63.79712 | 20.18947 | 1841 ft | 216 kts | 237° |
| 2026-05-06 08:57 | 63.78809 | 20.15988 | 2137 ft | 238 kts | 238° |
| 2026-05-06 08:57 | 63.77872 | 20.12848 | 2822 ft | 244 kts | 238° |
| 2026-05-06 08:57 | 63.76699 | 20.10040 | 3556 ft | 253 kts | 212° |
| 2026-05-06 08:58 | 63.74970 | 20.09134 | 4301 ft | 264 kts | 180° |
| 2026-05-06 08:58 | 63.73147 | 20.09924 | 5083 ft | 271 kts | 165° |
| 2026-05-06 08:58 | 63.71360 | 20.11384 | 5846 ft | 275 kts | 161° |
| 2026-05-06 08:58 | 63.69599 | 20.13011 | 6603 ft | 279 kts | 160° |
| 2026-05-06 08:59 | 63.67793 | 20.14650 | 7340 ft | 282 kts | 161° |
| 2026-05-06 08:59 | 63.65954 | 20.16223 | 8087 ft | 284 kts | 162° |
| 2026-05-06 08:59 | 63.64077 | 20.17720 | 8839 ft | 287 kts | 163° |
| 2026-05-06 08:59 | 63.62174 | 20.19161 | 9585 ft | 290 kts | 164° |
| 2026-05-06 09:00 | 63.60239 | 20.20580 | 10198 ft | 298 kts | 165° |
| 2026-05-06 09:00 | 63.58185 | 20.22053 | 10365 ft | 321 kts | 165° |
| 2026-05-06 09:00 | 63.55988 | 20.23615 | 10550 ft | 341 kts | 165° |
| 2026-05-06 09:00 | 63.53729 | 20.25227 | 11056 ft | 348 kts | 165° |
| 2026-05-06 09:01 | 63.51411 | 20.26889 | 11705 ft | 352 kts | 164° |
| 2026-05-06 09:01 | 63.49071 | 20.28563 | 12366 ft | 355 kts | 165° |
| 2026-05-06 09:01 | 63.46706 | 20.30250 | 13042 ft | 358 kts | 165° |
| 2026-05-06 09:01 | 63.44318 | 20.31947 | 13648 ft | 364 kts | 165° |
| 2026-05-06 09:02 | 63.41891 | 20.33672 | 14217 ft | 368 kts | 165° |
| 2026-05-06 09:02 | 63.39445 | 20.35410 | 14833 ft | 370 kts | 164° |
| 2026-05-06 09:02 | 63.36980 | 20.37160 | 15472 ft | 373 kts | 164° |
| 2026-05-06 09:02 | 63.34494 | 20.38923 | 16089 ft | 376 kts | 164° |
| 2026-05-06 09:03 | 63.31993 | 20.40692 | 16706 ft | 379 kts | 165° |
| 2026-05-06 09:03 | 63.29486 | 20.42309 | 17319 ft | 380 kts | 171° |
| 2026-05-06 09:03 | 63.26857 | 20.42962 | 17904 ft | 381 kts | 183° |
| 2026-05-06 09:03 | 63.24227 | 20.42425 | 18439 ft | 380 kts | 195° |
| 2026-05-06 09:04 | 63.21707 | 20.40737 | 18990 ft | 378 kts | 206° |
| 2026-05-06 09:04 | 63.19328 | 20.38269 | 19556 ft | 378 kts | 209° |
| 2026-05-06 09:04 | 63.16945 | 20.35773 | 20145 ft | 380 kts | 209° |
| 2026-05-06 09:04 | 63.14546 | 20.33289 | 20742 ft | 381 kts | 209° |
| 2026-05-06 09:05 | 63.12137 | 20.30810 | 21310 ft | 383 kts | 209° |
| 2026-05-06 09:05 | 63.09714 | 20.28321 | 21861 ft | 385 kts | 209° |
| 2026-05-06 09:05 | 63.07311 | 20.25850 | 22396 ft | 387 kts | 209° |
| 2026-05-06 09:05 | 63.04871 | 20.23336 | 22917 ft | 388 kts | 209° |
| 2026-05-06 09:06 | 63.02419 | 20.20811 | 23440 ft | 390 kts | 209° |
| 2026-05-06 09:06 | 62.99956 | 20.18279 | 23850 ft | 392 kts | 210° |
| 2026-05-06 09:06 | 62.97477 | 20.15740 | 24253 ft | 394 kts | 210° |
| 2026-05-06 09:06 | 62.94985 | 20.13200 | 24623 ft | 396 kts | 210° |
| 2026-05-06 09:07 | 62.92483 | 20.10663 | 24963 ft | 398 kts | 210° |
| 2026-05-06 09:07 | 62.89972 | 20.08121 | 25418 ft | 397 kts | 211° |
| 2026-05-06 09:07 | 62.87466 | 20.05580 | 25832 ft | 397 kts | 211° |
| 2026-05-06 09:07 | 62.84991 | 20.03063 | 26206 ft | 398 kts | 211° |
| 2026-05-06 09:08 | 62.82476 | 20.00498 | 26556 ft | 400 kts | 212° |
| 2026-05-06 09:08 | 62.79965 | 19.97867 | 26914 ft | 401 kts | 212° |
| 2026-05-06 09:08 | 62.77460 | 19.95161 | 27256 ft | 402 kts | 213° |
| 2026-05-06 09:08 | 62.74952 | 19.92418 | 27587 ft | 404 kts | 213° |
| 2026-05-06 09:09 | 62.72433 | 19.89665 | 27909 ft | 406 kts | 213° |
| 2026-05-06 09:09 | 62.69901 | 19.86915 | 28239 ft | 408 kts | 213° |
| 2026-05-06 09:09 | 62.67358 | 19.84166 | 28540 ft | 409 kts | 213° |
| 2026-05-06 09:09 | 62.64800 | 19.81417 | 28837 ft | 411 kts | 213° |
| 2026-05-06 09:10 | 62.62269 | 19.78719 | 29217 ft | 410 kts | 214° |
| 2026-05-06 09:10 | 62.59713 | 19.76010 | 29633 ft | 409 kts | 214° |
| 2026-05-06 09:10 | 62.57146 | 19.73292 | 29974 ft | 410 kts | 214° |
| 2026-05-06 09:10 | 62.54584 | 19.70578 | 30288 ft | 410 kts | 214° |
| 2026-05-06 09:11 | 62.52027 | 19.67870 | 30589 ft | 410 kts | 214° |
| 2026-05-06 09:11 | 62.49457 | 19.65156 | 30858 ft | 411 kts | 214° |
| 2026-05-06 09:11 | 62.46891 | 19.62454 | 31139 ft | 411 kts | 214° |
| 2026-05-06 09:11 | 62.44316 | 19.59747 | 31397 ft | 412 kts | 213° |
| 2026-05-06 09:12 | 62.41732 | 19.57040 | 31658 ft | 413 kts | 213° |
| 2026-05-06 09:12 | 62.39146 | 19.54336 | 31914 ft | 413 kts | 213° |
| 2026-05-06 09:12 | 62.36559 | 19.51627 | 32137 ft | 414 kts | 213° |
| 2026-05-06 09:12 | 62.34010 | 19.48961 | 32490 ft | 412 kts | 213° |
| 2026-05-06 09:13 | 62.31436 | 19.46268 | 32780 ft | 411 kts | 213° |
| 2026-05-06 09:13 | 62.28858 | 19.43574 | 33026 ft | 412 kts | 213° |
| 2026-05-06 09:13 | 62.26275 | 19.40886 | 33259 ft | 413 kts | 213° |
| 2026-05-06 09:13 | 62.23688 | 19.38204 | 33495 ft | 414 kts | 212° |
| 2026-05-06 09:14 | 62.21088 | 19.35517 | 33721 ft | 415 kts | 212° |
| 2026-05-06 09:14 | 62.18483 | 19.32825 | 33928 ft | 416 kts | 212° |
| 2026-05-06 09:14 | 62.15880 | 19.30138 | 33979 ft | 415 kts | 212° |
| 2026-05-06 09:15 | 62.10683 | 19.24814 | 33986 ft | 413 kts | 212° |
| 2026-05-06 09:15 | 62.05549 | 19.19576 | 33990 ft | 410 kts | 212° |
| 2026-05-06 09:16 | 62.00415 | 19.14330 | 33995 ft | 409 kts | 212° |
| 2026-05-06 09:16 | 61.95288 | 19.09102 | 34001 ft | 409 kts | 212° |
| 2026-05-06 09:17 | 61.90155 | 19.03895 | 34010 ft | 409 kts | 212° |
| 2026-05-06 09:17 | 61.85049 | 18.98750 | 34001 ft | 409 kts | 212° |
| 2026-05-06 09:18 | 61.79873 | 18.93728 | 33970 ft | 411 kts | 211° |
| 2026-05-06 09:18 | 61.74582 | 18.89115 | 33997 ft | 411 kts | 210° |
| 2026-05-06 09:19 | 61.69283 | 18.84604 | 34016 ft | 411 kts | 210° |
| 2026-05-06 09:19 | 61.64033 | 18.80075 | 34012 ft | 410 kts | 210° |
| 2026-05-06 09:20 | 61.58767 | 18.75483 | 34015 ft | 409 kts | 210° |
| 2026-05-06 09:20 | 61.53509 | 18.70888 | 33973 ft | 409 kts | 211° |
| 2026-05-06 09:21 | 61.48256 | 18.66353 | 34024 ft | 408 kts | 211° |
| 2026-05-06 09:21 | 61.43017 | 18.61862 | 34037 ft | 406 kts | 211° |
| 2026-05-06 09:22 | 61.37831 | 18.57415 | 34037 ft | 405 kts | 211° |
| 2026-05-06 09:22 | 61.32614 | 18.52955 | 34040 ft | 405 kts | 211° |
| 2026-05-06 09:23 | 61.27399 | 18.48515 | 34041 ft | 405 kts | 210° |
| 2026-05-06 09:23 | 61.22202 | 18.44106 | 34037 ft | 402 kts | 211° |
| 2026-05-06 09:24 | 61.17042 | 18.39737 | 34053 ft | 400 kts | 211° |
| 2026-05-06 09:24 | 61.11937 | 18.35428 | 34059 ft | 398 kts | 211° |
| 2026-05-06 09:25 | 61.06819 | 18.31131 | 34057 ft | 397 kts | 211° |
| 2026-05-06 09:25 | 61.01713 | 18.26855 | 34055 ft | 396 kts | 211° |
| 2026-05-06 09:26 | 60.96612 | 18.22603 | 34021 ft | 395 kts | 211° |
| 2026-05-06 09:26 | 60.91561 | 18.18407 | 34041 ft | 393 kts | 211° |
| 2026-05-06 09:27 | 60.86489 | 18.14202 | 34059 ft | 392 kts | 211° |
| 2026-05-06 09:27 | 60.81427 | 18.10032 | 34050 ft | 392 kts | 211° |
| 2026-05-06 09:28 | 60.76372 | 18.05869 | 34051 ft | 391 kts | 211° |
| 2026-05-06 09:28 | 60.71352 | 18.01753 | 34034 ft | 391 kts | 211° |
| 2026-05-06 09:29 | 60.66302 | 17.97626 | 34028 ft | 390 kts | 210° |
| 2026-05-06 09:29 | 60.61671 | 17.92391 | 34062 ft | 375 kts | 223° |
| 2026-05-06 09:30 | 60.57462 | 17.86115 | 34054 ft | 375 kts | 223° |
| 2026-05-06 09:30 | 60.53251 | 17.79880 | 34051 ft | 375 kts | 223° |
| 2026-05-06 09:31 | 60.49064 | 17.73702 | 34044 ft | 374 kts | 223° |
| 2026-05-06 09:31 | 60.44850 | 17.67497 | 34039 ft | 374 kts | 223° |
| 2026-05-06 09:32 | 60.40631 | 17.61319 | 34039 ft | 375 kts | 223° |
| 2026-05-06 09:32 | 60.36410 | 17.55137 | 34037 ft | 375 kts | 223° |
| 2026-05-06 09:33 | 60.32214 | 17.49010 | 34037 ft | 375 kts | 223° |
| 2026-05-06 09:33 | 60.27986 | 17.42869 | 34032 ft | 375 kts | 222° |
| 2026-05-06 09:34 | 60.23754 | 17.36751 | 34033 ft | 374 kts | 222° |
| 2026-05-06 09:34 | 60.19522 | 17.30647 | 33975 ft | 374 kts | 222° |
| 2026-05-06 09:35 | 60.15314 | 17.24614 | 34010 ft | 374 kts | 222° |
| 2026-05-06 09:35 | 60.11082 | 17.18563 | 34025 ft | 373 kts | 222° |
| 2026-05-06 09:36 | 60.06856 | 17.12535 | 34031 ft | 373 kts | 222° |
| 2026-05-06 09:36 | 60.02631 | 17.06509 | 34032 ft | 373 kts | 222° |
| 2026-05-06 09:37 | 59.98433 | 17.00532 | 34036 ft | 373 kts | 222° |
| 2026-05-06 09:37 | 59.94198 | 16.94544 | 33987 ft | 373 kts | 221° |
| 2026-05-06 09:38 | 59.89965 | 16.88573 | 34013 ft | 373 kts | 221° |
| 2026-05-06 09:38 | 59.85735 | 16.82620 | 34022 ft | 373 kts | 221° |
| 2026-05-06 09:39 | 59.81499 | 16.76684 | 34024 ft | 373 kts | 221° |
| 2026-05-06 09:39 | 59.77282 | 16.70804 | 34030 ft | 373 kts | 221° |
| 2026-05-06 09:40 | 59.73041 | 16.64899 | 34045 ft | 373 kts | 221° |
| 2026-05-06 09:40 | 59.66673 | 16.56054 | 34004 ft | 373 kts | 221° |
| 2026-05-06 09:41 | 59.62452 | 16.50206 | 34059 ft | 373 kts | 221° |
| 2026-05-06 09:41 | 59.58191 | 16.44340 | 34055 ft | 373 kts | 220° |
| 2026-05-06 09:42 | 59.53928 | 16.38499 | 34052 ft | 373 kts | 220° |
| 2026-05-06 09:42 | 59.49665 | 16.32667 | 34049 ft | 373 kts | 220° |
| 2026-05-06 09:43 | 59.45431 | 16.26880 | 34045 ft | 373 kts | 220° |
| 2026-05-06 09:43 | 59.41164 | 16.21088 | 34001 ft | 374 kts | 219° |
| 2026-05-06 09:44 | 59.36755 | 16.15609 | 34011 ft | 376 kts | 217° |
| 2026-05-06 09:44 | 59.32251 | 16.10381 | 34023 ft | 377 kts | 217° |
| 2026-05-06 09:45 | 59.27748 | 16.05134 | 34026 ft | 377 kts | 217° |
| 2026-05-06 09:45 | 59.23263 | 15.99835 | 34033 ft | 377 kts | 217° |
| 2026-05-06 09:46 | 59.18815 | 15.94568 | 33972 ft | 377 kts | 217° |
| 2026-05-06 09:46 | 59.14340 | 15.89298 | 34013 ft | 375 kts | 216° |
| 2026-05-06 09:47 | 59.09866 | 15.84055 | 34033 ft | 375 kts | 216° |
| 2026-05-06 09:47 | 59.05397 | 15.78848 | 34040 ft | 374 kts | 216° |
| 2026-05-06 09:48 | 59.00964 | 15.73691 | 34034 ft | 374 kts | 216° |
| 2026-05-06 09:48 | 58.96506 | 15.68507 | 34032 ft | 374 kts | 216° |
| 2026-05-06 09:49 | 58.92052 | 15.63332 | 34005 ft | 373 kts | 216° |
| 2026-05-06 09:49 | 58.87611 | 15.58196 | 34024 ft | 371 kts | 216° |
| 2026-05-06 09:50 | 58.83182 | 15.53101 | 34034 ft | 370 kts | 216° |
| 2026-05-06 09:50 | 58.78792 | 15.48081 | 34033 ft | 369 kts | 216° |
| 2026-05-06 09:51 | 58.74382 | 15.43049 | 34030 ft | 368 kts | 216° |
| 2026-05-06 09:51 | 58.69973 | 15.38015 | 34026 ft | 368 kts | 216° |
| 2026-05-06 09:52 | 58.65573 | 15.32998 | 33986 ft | 367 kts | 216° |
| 2026-05-06 09:52 | 58.61176 | 15.28011 | 34003 ft | 367 kts | 215° |
| 2026-05-06 09:53 | 58.56817 | 15.23081 | 34025 ft | 366 kts | 215° |
| 2026-05-06 09:53 | 58.52430 | 15.18135 | 34023 ft | 366 kts | 215° |
| 2026-05-06 09:54 | 58.48043 | 15.13218 | 34022 ft | 365 kts | 215° |
| 2026-05-06 09:54 | 58.43655 | 15.08305 | 34030 ft | 366 kts | 215° |
| 2026-05-06 09:55 | 58.39289 | 15.03415 | 33994 ft | 367 kts | 215° |
| 2026-05-06 09:55 | 58.34883 | 14.98502 | 33991 ft | 367 kts | 214° |
| 2026-05-06 09:56 | 58.30632 | 14.93182 | 34000 ft | 363 kts | 224° |
| 2026-05-06 09:56 | 58.26794 | 14.86924 | 33991 ft | 364 kts | 223° |
| 2026-05-06 09:57 | 58.22956 | 14.80747 | 34000 ft | 364 kts | 223° |
| 2026-05-06 09:57 | 58.19086 | 14.74538 | 34013 ft | 364 kts | 223° |
| 2026-05-06 09:58 | 58.15214 | 14.68336 | 33971 ft | 364 kts | 223° |
| 2026-05-06 09:58 | 58.11342 | 14.62149 | 33987 ft | 364 kts | 223° |
| 2026-05-06 09:59 | 58.07466 | 14.55968 | 33993 ft | 364 kts | 223° |
| 2026-05-06 09:59 | 58.03616 | 14.49852 | 33999 ft | 364 kts | 223° |
| 2026-05-06 10:00 | 57.99736 | 14.43712 | 34001 ft | 364 kts | 223° |
| 2026-05-06 10:00 | 57.95857 | 14.37572 | 33991 ft | 364 kts | 223° |
| 2026-05-06 10:01 | 57.91972 | 14.31448 | 33987 ft | 364 kts | 223° |
| 2026-05-06 10:01 | 57.88108 | 14.25375 | 33985 ft | 365 kts | 222° |
| 2026-05-06 10:02 | 57.84208 | 14.19269 | 33986 ft | 365 kts | 222° |
| 2026-05-06 10:02 | 57.80307 | 14.13179 | 33986 ft | 365 kts | 222° |
| 2026-05-06 10:03 | 57.76383 | 14.07162 | 34022 ft | 366 kts | 218° |
| 2026-05-06 10:03 | 57.71907 | 14.02487 | 34010 ft | 370 kts | 212° |
| 2026-05-06 10:04 | 57.67371 | 13.98034 | 33957 ft | 371 kts | 212° |
| 2026-05-06 10:04 | 57.62796 | 13.93562 | 33968 ft | 372 kts | 212° |
| 2026-05-06 10:05 | 57.58207 | 13.89103 | 33976 ft | 372 kts | 212° |
| 2026-05-06 10:05 | 57.53614 | 13.84648 | 33984 ft | 373 kts | 212° |
| 2026-05-06 10:06 | 57.49013 | 13.80182 | 33982 ft | 373 kts | 212° |
| 2026-05-06 10:06 | 57.44446 | 13.75755 | 33928 ft | 373 kts | 211° |
| 2026-05-06 10:07 | 57.42164 | 13.73550 | 33640 ft | 367 kts | 211° |
| 2026-05-06 10:07 | 57.39910 | 13.71387 | 33361 ft | 363 kts | 211° |
| 2026-05-06 10:07 | 57.37674 | 13.69246 | 33085 ft | 360 kts | 211° |
| 2026-05-06 10:07 | 57.35463 | 13.67132 | 32830 ft | 355 kts | 211° |
| 2026-05-06 10:08 | 57.33287 | 13.65055 | 32441 ft | 349 kts | 211° |
| 2026-05-06 10:08 | 57.31141 | 13.63005 | 32049 ft | 345 kts | 211° |
| 2026-05-06 10:08 | 57.29028 | 13.60984 | 31664 ft | 340 kts | 211° |
| 2026-05-06 10:08 | 57.26968 | 13.59012 | 31289 ft | 335 kts | 211° |
| 2026-05-06 10:09 | 57.24909 | 13.57048 | 30916 ft | 331 kts | 211° |
| 2026-05-06 10:09 | 57.22875 | 13.55112 | 30549 ft | 327 kts | 211° |
| 2026-05-06 10:09 | 57.20862 | 13.53195 | 30191 ft | 324 kts | 211° |
| 2026-05-06 10:09 | 57.18869 | 13.51295 | 29773 ft | 321 kts | 210° |
| 2026-05-06 10:10 | 57.16902 | 13.49422 | 29437 ft | 316 kts | 210° |
| 2026-05-06 10:10 | 57.14961 | 13.47582 | 29089 ft | 311 kts | 210° |
| 2026-05-06 10:10 | 57.13044 | 13.45775 | 28758 ft | 309 kts | 210° |
| 2026-05-06 10:10 | 57.11133 | 13.43973 | 28431 ft | 308 kts | 210° |
| 2026-05-06 10:11 | 57.09257 | 13.42199 | 28098 ft | 307 kts | 211° |
| 2026-05-06 10:11 | 57.07361 | 13.40409 | 27785 ft | 306 kts | 211° |
| 2026-05-06 10:11 | 57.05466 | 13.38624 | 27473 ft | 305 kts | 211° |
| 2026-05-06 10:11 | 57.03580 | 13.36845 | 27161 ft | 304 kts | 211° |
| 2026-05-06 10:12 | 57.01698 | 13.35072 | 26853 ft | 304 kts | 211° |
| 2026-05-06 10:12 | 56.99819 | 13.33307 | 26540 ft | 303 kts | 211° |
| 2026-05-06 10:12 | 56.97944 | 13.31553 | 26232 ft | 302 kts | 211° |
| 2026-05-06 10:12 | 56.96074 | 13.29804 | 25926 ft | 302 kts | 211° |
| 2026-05-06 10:13 | 56.94233 | 13.28080 | 25585 ft | 301 kts | 210° |
| 2026-05-06 10:13 | 56.92359 | 13.26331 | 25293 ft | 303 kts | 211° |
| 2026-05-06 10:13 | 56.90475 | 13.24574 | 24978 ft | 304 kts | 211° |
| 2026-05-06 10:13 | 56.88595 | 13.22822 | 24651 ft | 303 kts | 211° |
| 2026-05-06 10:14 | 56.86717 | 13.21073 | 24318 ft | 303 kts | 211° |
| 2026-05-06 10:14 | 56.84842 | 13.19324 | 23986 ft | 302 kts | 211° |
| 2026-05-06 10:14 | 56.82972 | 13.17581 | 23648 ft | 302 kts | 211° |
| 2026-05-06 10:14 | 56.81106 | 13.15847 | 23271 ft | 301 kts | 211° |
| 2026-05-06 10:15 | 56.79265 | 13.14140 | 22924 ft | 300 kts | 211° |
| 2026-05-06 10:15 | 56.77405 | 13.12419 | 22573 ft | 299 kts | 211° |
| 2026-05-06 10:15 | 56.75550 | 13.10703 | 22228 ft | 298 kts | 211° |
| 2026-05-06 10:15 | 56.73699 | 13.08994 | 21880 ft | 297 kts | 211° |
| 2026-05-06 10:16 | 56.71860 | 13.07300 | 21535 ft | 296 kts | 211° |
| 2026-05-06 10:16 | 56.70022 | 13.05604 | 21180 ft | 296 kts | 211° |
| 2026-05-06 10:16 | 56.68190 | 13.03912 | 20835 ft | 296 kts | 211° |
| 2026-05-06 10:16 | 56.66336 | 13.02260 | 20489 ft | 304 kts | 205° |
| 2026-05-06 10:17 | 56.64290 | 13.00906 | 20157 ft | 318 kts | 203° |
| 2026-05-06 10:17 | 56.62176 | 12.99608 | 19909 ft | 322 kts | 202° |
| 2026-05-06 10:17 | 56.60046 | 12.98350 | 19662 ft | 322 kts | 202° |
| 2026-05-06 10:17 | 56.57941 | 12.97124 | 19420 ft | 322 kts | 202° |
| 2026-05-06 10:18 | 56.55809 | 12.95883 | 19176 ft | 321 kts | 202° |
| 2026-05-06 10:18 | 56.53687 | 12.94639 | 18935 ft | 320 kts | 202° |
| 2026-05-06 10:18 | 56.51571 | 12.93390 | 18698 ft | 320 kts | 202° |
| 2026-05-06 10:18 | 56.49458 | 12.92140 | 18455 ft | 319 kts | 202° |
| 2026-05-06 10:19 | 56.47349 | 12.90888 | 18215 ft | 318 kts | 202° |
| 2026-05-06 10:19 | 56.45247 | 12.89637 | 17949 ft | 318 kts | 202° |
| 2026-05-06 10:19 | 56.43153 | 12.88393 | 17650 ft | 317 kts | 201° |
| 2026-05-06 10:19 | 56.41052 | 12.87147 | 17381 ft | 317 kts | 201° |
| 2026-05-06 10:20 | 56.38959 | 12.85909 | 17114 ft | 317 kts | 201° |
| 2026-05-06 10:20 | 56.36895 | 12.84688 | 16856 ft | 316 kts | 201° |
| 2026-05-06 10:20 | 56.34810 | 12.83455 | 16590 ft | 315 kts | 201° |
| 2026-05-06 10:20 | 56.32730 | 12.82230 | 16324 ft | 314 kts | 201° |
| 2026-05-06 10:21 | 56.30654 | 12.81008 | 16069 ft | 313 kts | 201° |
| 2026-05-06 10:21 | 56.28583 | 12.79788 | 15811 ft | 312 kts | 201° |
| 2026-05-06 10:21 | 56.26519 | 12.78575 | 15560 ft | 312 kts | 201° |
| 2026-05-06 10:21 | 56.24477 | 12.77373 | 15309 ft | 311 kts | 201° |
| 2026-05-06 10:22 | 56.22426 | 12.76163 | 15064 ft | 310 kts | 201° |
| 2026-05-06 10:22 | 56.20374 | 12.74954 | 14810 ft | 309 kts | 201° |
| 2026-05-06 10:22 | 56.18332 | 12.73755 | 14548 ft | 309 kts | 200° |
| 2026-05-06 10:22 | 56.16288 | 12.72559 | 14311 ft | 309 kts | 200° |
| 2026-05-06 10:23 | 56.14241 | 12.71368 | 14070 ft | 309 kts | 200° |
| 2026-05-06 10:23 | 56.12204 | 12.70183 | 13831 ft | 308 kts | 200° |
| 2026-05-06 10:23 | 56.10170 | 12.69000 | 13572 ft | 307 kts | 200° |
| 2026-05-06 10:23 | 56.08166 | 12.67836 | 13307 ft | 306 kts | 200° |
| 2026-05-06 10:24 | 56.06145 | 12.66661 | 13036 ft | 305 kts | 200° |
| 2026-05-06 10:24 | 56.04126 | 12.65488 | 12770 ft | 305 kts | 200° |
| 2026-05-06 10:24 | 56.02112 | 12.64319 | 12506 ft | 304 kts | 199° |
| 2026-05-06 10:24 | 56.00107 | 12.63159 | 12271 ft | 300 kts | 199° |
| 2026-05-06 10:25 | 55.98143 | 12.62019 | 11950 ft | 295 kts | 199° |
| 2026-05-06 10:25 | 55.96200 | 12.60894 | 11608 ft | 293 kts | 199° |
| 2026-05-06 10:25 | 55.94266 | 12.59781 | 11247 ft | 290 kts | 199° |
| 2026-05-06 10:25 | 55.92374 | 12.58696 | 10914 ft | 288 kts | 199° |
| 2026-05-06 10:26 | 55.90473 | 12.57601 | 10571 ft | 287 kts | 199° |
| 2026-05-06 10:26 | 55.88583 | 12.56506 | 10224 ft | 285 kts | 199° |
| 2026-05-06 10:26 | 55.86703 | 12.55419 | 9890 ft | 284 kts | 200° |
| 2026-05-06 10:26 | 55.84824 | 12.54342 | 9516 ft | 283 kts | 199° |
| 2026-05-06 10:27 | 55.82953 | 12.53276 | 9169 ft | 281 kts | 198° |
| 2026-05-06 10:27 | 55.81095 | 12.52216 | 8820 ft | 279 kts | 198° |
| 2026-05-06 10:27 | 55.79255 | 12.51162 | 8493 ft | 277 kts | 198° |
| 2026-05-06 10:27 | 55.77423 | 12.50112 | 8161 ft | 276 kts | 198° |
| 2026-05-06 10:28 | 55.75602 | 12.49067 | 7829 ft | 275 kts | 198° |
| 2026-05-06 10:28 | 55.73787 | 12.48025 | 7489 ft | 273 kts | 197° |
| 2026-05-06 10:28 | 55.71978 | 12.46995 | 7166 ft | 273 kts | 196° |
| 2026-05-06 10:28 | 55.70177 | 12.45972 | 6828 ft | 272 kts | 196° |
| 2026-05-06 10:29 | 55.68398 | 12.44957 | 6502 ft | 272 kts | 196° |
| 2026-05-06 10:29 | 55.66599 | 12.43930 | 6192 ft | 271 kts | 196° |
| 2026-05-06 10:29 | 55.64811 | 12.42912 | 5868 ft | 269 kts | 196° |
| 2026-05-06 10:29 | 55.63027 | 12.41902 | 5542 ft | 269 kts | 195° |
| 2026-05-06 10:30 | 55.61241 | 12.40883 | 5206 ft | 271 kts | 198° |
| 2026-05-06 10:30 | 55.59564 | 12.39376 | 4896 ft | 271 kts | 214° |
| 2026-05-06 10:30 | 55.58112 | 12.37218 | 4789 ft | 277 kts | 220° |
| 2026-05-06 10:30 | 55.56666 | 12.34971 | 4605 ft | 276 kts | 219° |
| 2026-05-06 10:31 | 55.55223 | 12.32760 | 4356 ft | 271 kts | 219° |
| 2026-05-06 10:31 | 55.53843 | 12.30657 | 4213 ft | 260 kts | 219° |
| 2026-05-06 10:31 | 55.52514 | 12.28629 | 4019 ft | 246 kts | 220° |
| 2026-05-06 10:31 | 55.51235 | 12.26675 | 3646 ft | 241 kts | 219° |
| 2026-05-06 10:32 | 55.49966 | 12.24740 | 3219 ft | 242 kts | 219° |
| 2026-05-06 10:32 | 55.48677 | 12.22859 | 3010 ft | 238 kts | 210° |
| 2026-05-06 10:32 | 55.47131 | 12.22016 | 2993 ft | 234 kts | 175° |
| 2026-05-06 10:32 | 55.45607 | 12.22744 | 2996 ft | 226 kts | 144° |
| 2026-05-06 10:33 | 55.44348 | 12.24398 | 2993 ft | 226 kts | 136° |
| 2026-05-06 10:33 | 55.43158 | 12.26199 | 2994 ft | 226 kts | 135° |
| 2026-05-06 10:33 | 55.41992 | 12.27994 | 2994 ft | 226 kts | 135° |
| 2026-05-06 10:33 | 55.40817 | 12.29816 | 2999 ft | 225 kts | 135° |
| 2026-05-06 10:34 | 55.39643 | 12.31639 | 3005 ft | 225 kts | 135° |
| 2026-05-06 10:34 | 55.38473 | 12.33458 | 2992 ft | 224 kts | 135° |
| 2026-05-06 10:34 | 55.37300 | 12.35279 | 2994 ft | 225 kts | 135° |
| 2026-05-06 10:34 | 55.36130 | 12.37093 | 2984 ft | 225 kts | 135° |
| 2026-05-06 10:35 | 55.34955 | 12.38912 | 2994 ft | 225 kts | 135° |
| 2026-05-06 10:35 | 55.33808 | 12.40771 | 2994 ft | 223 kts | 126° |
| 2026-05-06 10:35 | 55.33207 | 12.43186 | 2992 ft | 216 kts | 92° |
| 2026-05-06 10:35 | 55.33500 | 12.45714 | 2993 ft | 215 kts | 58° |
| 2026-05-06 10:36 | 55.34557 | 12.47471 | 2991 ft | 217 kts | 26° |
| 2026-05-06 10:36 | 55.36046 | 12.47873 | 2997 ft | 224 kts | 352° |
| 2026-05-06 10:36 | 55.37464 | 12.46717 | 2999 ft | 231 kts | 322° |
| 2026-05-06 10:36 | 55.38616 | 12.44775 | 2997 ft | 234 kts | 316° |
| 2026-05-06 10:37 | 55.39728 | 12.42683 | 2994 ft | 235 kts | 315° |
| 2026-05-06 10:37 | 55.40833 | 12.40567 | 2994 ft | 235 kts | 317° |
| 2026-05-06 10:37 | 55.42129 | 12.38896 | 2991 ft | 229 kts | 340° |
| 2026-05-06 10:37 | 55.43663 | 12.38307 | 2998 ft | 224 kts | 5° |
| 2026-05-06 10:38 | 55.45103 | 12.38918 | 3002 ft | 209 kts | 29° |
| 2026-05-06 10:38 | 55.46244 | 12.40418 | 3000 ft | 204 kts | 43° |
| 2026-05-06 10:38 | 55.47281 | 12.42005 | 3009 ft | 191 kts | 43° |
| 2026-05-06 10:38 | 55.48232 | 12.43458 | 2886 ft | 174 kts | 43° |
| 2026-05-06 10:39 | 55.49114 | 12.44809 | 2703 ft | 162 kts | 43° |
| 2026-05-06 10:39 | 55.49942 | 12.46077 | 2501 ft | 154 kts | 43° |
| 2026-05-06 10:39 | 55.50743 | 12.47307 | 2309 ft | 152 kts | 43° |
| 2026-05-06 10:39 | 55.51530 | 12.48515 | 2119 ft | 145 kts | 43° |
| 2026-05-06 10:40 | 55.52284 | 12.49672 | 1902 ft | 141 kts | 43° |
| 2026-05-06 10:40 | 55.53016 | 12.50819 | 1703 ft | 140 kts | 44° |
| 2026-05-06 10:40 | 55.53741 | 12.51961 | 1516 ft | 140 kts | 43° |
| 2026-05-06 10:40 | 55.54473 | 12.53065 | 1307 ft | 140 kts | 42° |
| 2026-05-06 10:41 | 55.55210 | 12.54165 | 1120 ft | 139 kts | 44° |
| 2026-05-06 10:41 | 55.55930 | 12.55298 | 930 ft | 139 kts | 43° |
| 2026-05-06 10:41 | 55.56667 | 12.56420 | 745 ft | 140 kts | 41° |
| 2026-05-06 10:41 | 55.57395 | 12.57534 | 563 ft | 139 kts | 43° |
| 2026-05-06 10:42 | 55.58124 | 12.58665 | 328 ft | 139 kts | 41° |
| 2026-05-06 10:42 | 55.58855 | 12.59789 | 131 ft | 139 kts | 41° |
| 2026-05-06 10:42 | 55.59563 | 12.60886 | 27 ft | 128 kts | 41° |
| 2026-05-06 10:42 | 55.60119 | 12.61746 | 20 ft | 82 kts | 40° |
| 2026-05-06 10:43 | 55.60422 | 12.62201 | 18 ft | 32 kts | 36° |
| 2026-05-06 10:43 | 55.60551 | 12.62310 | 19 ft | 18 kts | 17° |
| 2026-05-06 10:43 | 55.60640 | 12.62347 | 18 ft | 13 kts | 10° |
| 2026-05-06 10:44 | 55.60826 | 12.62459 | 17 ft | 15 kts | 40° |
| 2026-05-06 10:44 | 55.60910 | 12.62586 | 17 ft | 16 kts | 41° |
| 2026-05-06 10:44 | 55.60998 | 12.62724 | 17 ft | 17 kts | 41° |
| 2026-05-06 10:44 | 55.61091 | 12.62868 | 17 ft | 18 kts | 41° |
| 2026-05-06 10:45 | 55.61188 | 12.63018 | 17 ft | 19 kts | 41° |
| 2026-05-06 10:45 | 55.61288 | 12.63174 | 17 ft | 20 kts | 41° |
| 2026-05-06 10:45 | 55.61391 | 12.63332 | 17 ft | 20 kts | 41° |
| 2026-05-06 10:45 | 55.61499 | 12.63497 | 17 ft | 21 kts | 41° |
| 2026-05-06 10:46 | 55.61609 | 12.63668 | 17 ft | 21 kts | 41° |
| 2026-05-06 10:46 | 55.61722 | 12.63842 | 17 ft | 22 kts | 41° |
| 2026-05-06 10:46 | 55.61836 | 12.64019 | 17 ft | 22 kts | 41° |
| 2026-05-06 10:46 | 55.61970 | 12.64156 | 17 ft | 23 kts | 26° |
| 2026-05-06 10:47 | 55.62114 | 12.64276 | 19 ft | 23 kts | 25° |
| 2026-05-06 10:47 | 55.62242 | 12.64396 | 16 ft | 18 kts | 46° |
| 2026-05-06 10:47 | 55.62297 | 12.64598 | 17 ft | 18 kts | 66° |
| 2026-05-06 10:47 | 55.62342 | 12.64781 | 17 ft | 14 kts | 66° |
| 2026-05-06 10:48 | 55.62325 | 12.64939 | 17 ft | 15 kts | 123° |
| 2026-05-06 10:48 | 55.62273 | 12.65099 | 17 ft | 15 kts | 99° |
| 2026-05-06 10:48 | 55.62343 | 12.65206 | 17 ft | 15 kts | 1° |
| 2026-05-06 10:48 | 55.62430 | 12.65230 | 17 ft | 12 kts | 47° |
| 2026-05-06 10:49 | 55.62439 | 12.65379 | 17 ft | 13 kts | 89° |
| 2026-05-06 10:49 | 55.62447 | 12.65513 | 19 ft | 9 kts | 56° |
| 2026-05-06 10:49 | 55.62496 | 12.65559 | 17 ft | 6 kts | 23° |
| 2026-05-06 10:49 | 55.62514 | 12.65572 | 17 ft | 0 kts | 23° |
| 2026-05-06 10:53 | 55.62514 | 12.65573 | 17 ft | 0 kts | 24° |